createdAt,value
2023-03-27T00:01:30.556Z,99461.44
2023-03-27T00:04:00.612Z,99451.81
2023-03-27T00:06:29.451Z,99460.44
2023-03-27T00:08:58.254Z,99463.91
2023-03-27T00:11:27.024Z,99463.53
2023-03-27T00:13:55.683Z,99472.19
2023-03-27T00:16:27.029Z,99461.56
2023-03-27T00:18:57.083Z,99473.94
2023-03-27T00:21:27.286Z,99492.47
2023-03-27T00:23:56.691Z,99487.38
2023-03-27T00:26:25.266Z,99492.50
2023-03-27T00:28:54.874Z,99500.38
2023-03-27T00:31:23.577Z,99494.19
2023-03-27T00:33:52.561Z,99501.19
2023-03-27T00:36:21.295Z,99496.03
2023-03-27T00:38:53.186Z,99496.91
2023-03-27T00:41:22.632Z,99507.50
2023-03-27T00:43:56.424Z,99500.47
2023-03-27T00:46:36.249Z,99518.91
2023-03-27T00:49:11.124Z,99517.91
2023-03-27T00:51:42.601Z,99522.22
2023-03-27T00:54:16.367Z,99527.00
2023-03-27T00:56:46.763Z,99500.06
2023-03-27T00:59:21.951Z,99531.22
2023-03-27T01:01:51.598Z,99534.84
2023-03-27T01:04:22.208Z,99536.75
2023-03-27T01:06:56.596Z,99523.06
2023-03-27T01:09:27.958Z,99540.13
2023-03-27T01:12:20.582Z,99524.84
2023-03-27T01:15:07.390Z,99538.88
2023-03-27T01:18:03.620Z,99524.16
2023-03-27T01:21:22.493Z,99530.25
2023-03-27T01:24:38.505Z,99545.88
2023-03-27T01:27:18.496Z,99535.41
2023-03-27T01:30:01.937Z,99550.28
2023-03-27T01:33:10.140Z,99555.44
2023-03-27T01:36:19.756Z,99550.91
2023-03-27T01:39:36.173Z,99561.50
2023-03-27T01:42:20.114Z,99533.91
2023-03-27T01:44:54.903Z,99561.59
2023-03-27T01:47:46.837Z,99569.47
2023-03-27T01:50:27.321Z,99553.09
2023-03-27T01:53:04.434Z,99570.19
2023-03-27T01:55:40.235Z,99590.22
2023-03-27T01:58:15.579Z,99582.50
2023-03-27T02:00:53.126Z,99591.34
2023-03-27T02:03:30.510Z,99587.09
2023-03-27T02:06:07.846Z,99606.13
2023-03-27T02:08:46.677Z,99604.50
2023-03-27T02:11:21.701Z,99591.53
2023-03-27T02:13:55.527Z,99607.22
2023-03-27T02:16:33.805Z,99631.69
2023-03-27T02:19:10.069Z,99635.19
2023-03-27T02:21:38.987Z,99642.19
2023-03-27T02:24:09.114Z,99653.56
2023-03-27T02:26:39.713Z,99647.41
2023-03-27T02:29:39.948Z,99621.44
2023-03-27T02:32:27.426Z,99661.50
2023-03-27T02:35:18.102Z,99653.81
2023-03-27T02:38:01.232Z,99563.69
2023-03-27T02:40:56.997Z,99670.31
2023-03-27T02:44:00.997Z,99686.84
2023-03-27T02:47:08.782Z,99706.97
2023-03-27T02:49:45.042Z,99618.47
2023-03-27T02:52:18.906Z,99718.31
2023-03-27T02:54:56.775Z,99715.06
2023-03-27T02:57:31.772Z,99728.97
2023-03-27T03:00:25.502Z,99709.78
2023-03-27T03:03:12.540Z,99700.41
2023-03-27T03:05:42.882Z,99726.50
2023-03-27T03:08:11.957Z,99699.53
2023-03-27T03:10:45.348Z,99737.63
2023-03-27T03:13:15.459Z,99749.91
2023-03-27T03:15:48.375Z,99745.53
2023-03-27T03:18:19.057Z,99753.41
2023-03-27T03:20:48.527Z,99766.59
2023-03-27T03:23:17.248Z,99768.44
2023-03-27T03:25:47.957Z,99772.75
2023-03-27T03:28:18.253Z,99780.53
2023-03-27T03:30:51.408Z,99725.94
2023-03-27T03:33:21.175Z,99790.31
2023-03-27T03:35:50.621Z,99786.78
2023-03-27T03:38:37.890Z,99798.22
2023-03-27T03:41:11.144Z,99798.16
2023-03-27T03:43:39.935Z,99797.34
2023-03-27T03:46:11.185Z,99800.94
2023-03-27T03:48:39.937Z,99822.72
2023-03-27T03:51:08.717Z,99823.59
2023-03-27T03:53:37.669Z,99826.25
2023-03-27T03:56:07.290Z,99833.28
2023-03-27T03:58:36.419Z,99837.66
2023-03-27T04:01:09.097Z,99778.50
2023-03-27T04:03:47.466Z,99828.16
2023-03-27T04:06:17.525Z,99833.38
2023-03-27T04:08:49.729Z,99849.09
2023-03-27T04:11:44.682Z,99865.59
2023-03-27T04:14:25.089Z,99874.34
2023-03-27T04:16:56.414Z,99878.69
2023-03-27T04:19:29.053Z,99867.38
2023-03-27T04:22:03.708Z,99888.28
2023-03-27T04:24:35.987Z,99895.25
2023-03-27T04:27:04.772Z,99903.09
2023-03-27T04:29:55.951Z,99859.59
2023-03-27T04:32:33.518Z,99910.09
2023-03-27T04:35:23.386Z,99937.94
2023-03-27T04:38:01.782Z,99930.13
2023-03-27T04:40:49.598Z,99943.19
2023-03-27T04:43:19.972Z,99957.97
2023-03-27T04:45:48.853Z,99966.72
2023-03-27T04:48:18.429Z,99965.84
2023-03-27T04:50:52.783Z,99963.22
2023-03-27T04:53:36.490Z,99972.78
2023-03-27T04:56:06.127Z,99980.63
2023-03-27T04:58:41.090Z,99993.69
2023-03-27T05:01:14.080Z,99991.06
2023-03-27T05:04:02.586Z,99997.19
2023-03-27T05:07:04.854Z,100001.53
2023-03-27T05:09:33.708Z,100001.53
2023-03-27T05:12:02.095Z,100015.44
2023-03-27T05:14:37.660Z,100030.25
2023-03-27T05:17:07.386Z,100041.56
2023-03-27T05:19:42.339Z,100044.16
2023-03-27T05:22:12.790Z,100038.94
2023-03-27T05:24:50.475Z,100049.41
2023-03-27T05:27:19.382Z,100055.50
2023-03-27T05:29:50.626Z,100043.31
2023-03-27T05:32:19.105Z,100035.44
2023-03-27T05:34:54.573Z,100065.94
2023-03-27T05:37:27.382Z,100064.22
2023-03-27T05:40:19.561Z,100070.28
2023-03-27T05:42:49.001Z,100079.03
2023-03-27T05:45:18.472Z,100089.47
2023-03-27T05:47:48.762Z,100085.13
2023-03-27T05:50:19.524Z,100085.13
2023-03-27T05:52:56.538Z,100094.69
2023-03-27T05:55:32.660Z,100098.22
2023-03-27T05:58:02.742Z,100120.84
2023-03-27T06:00:34.230Z,100114.75
2023-03-27T06:03:04.787Z,100117.38
2023-03-27T06:06:00.251Z,100117.41
2023-03-27T06:08:36.605Z,100120.91
2023-03-27T06:11:13.839Z,100133.09
2023-03-27T06:13:46.876Z,100129.59
2023-03-27T06:16:23.221Z,100130.50
2023-03-27T06:19:10.360Z,100140.97
2023-03-27T06:21:47.629Z,100139.19
2023-03-27T06:24:17.906Z,100141.84
2023-03-27T06:26:47.403Z,100153.19
2023-03-27T06:29:16.352Z,100155.78
2023-03-27T06:31:49.628Z,100153.22
2023-03-27T06:34:26.646Z,100168.91
2023-03-27T06:37:08.866Z,100178.44
2023-03-27T06:39:44.239Z,100171.47
2023-03-27T06:42:13.016Z,100181.09
2023-03-27T06:45:01.008Z,100187.16
2023-03-27T06:48:17.064Z,100185.44
2023-03-27T06:50:53.488Z,100185.41
2023-03-27T06:55:57.399Z,100198.47
2023-03-27T06:58:27.695Z,100200.19
2023-03-27T07:00:57.018Z,100203.66
2023-03-27T07:03:54.688Z,100217.56
2023-03-27T07:06:50.589Z,100207.00
2023-03-27T07:09:20.085Z,100215.69
2023-03-27T07:12:01.466Z,100146.66
2023-03-27T07:14:31.772Z,100221.69
2023-03-27T07:17:00.926Z,100219.91
2023-03-27T07:19:36.169Z,100227.72
2023-03-27T07:22:09.496Z,100225.09
2023-03-27T07:24:39.068Z,100225.91
2023-03-27T07:27:09.815Z,100229.44
2023-03-27T07:29:39.075Z,100225.00
2023-03-27T07:32:09.558Z,100237.28
2023-03-27T07:34:45.423Z,100230.25
2023-03-27T07:37:34.408Z,100231.16
2023-03-27T07:40:33.104Z,100235.53
2023-03-27T07:43:29.200Z,100239.88
2023-03-27T07:45:58.915Z,100245.16
2023-03-27T07:48:30.067Z,100252.16
2023-03-27T07:51:10.923Z,100256.53
2023-03-27T07:53:43.607Z,100247.00
2023-03-27T07:56:23.552Z,100248.91
2023-03-27T07:59:09.189Z,100249.91
2023-03-27T08:01:39.020Z,100261.38
2023-03-27T08:04:08.641Z,100250.03
2023-03-27T08:06:40.006Z,100247.44
2023-03-27T08:09:14.659Z,100244.75
2023-03-27T08:11:44.316Z,100263.97
2023-03-27T08:14:14.493Z,100270.09
2023-03-27T08:16:43.600Z,100273.63
2023-03-27T08:19:12.607Z,100271.00
2023-03-27T08:21:47.223Z,100273.63
2023-03-27T08:24:17.837Z,100268.38
2023-03-27T08:27:24.932Z,100284.97
2023-03-27T08:29:55.887Z,100277.97
2023-03-27T08:32:24.835Z,100277.06
2023-03-27T08:34:56.571Z,100284.94
2023-03-27T08:37:25.745Z,100285.81
2023-03-27T08:40:26.086Z,100291.03
2023-03-27T08:43:17.708Z,100293.56
2023-03-27T08:45:54.672Z,100290.91
2023-03-27T08:48:33.086Z,100292.69
2023-03-27T08:51:08.016Z,100202.84
2023-03-27T08:53:46.161Z,100253.50
2023-03-27T08:56:17.676Z,100290.22
2023-03-27T08:58:49.943Z,100300.66
2023-03-27T09:01:31.184Z,100305.91
2023-03-27T09:04:17.740Z,100287.59
2023-03-27T09:07:02.211Z,100289.28
2023-03-27T09:09:59.234Z,100309.38
2023-03-27T09:12:48.346Z,100310.22
2023-03-27T09:15:26.027Z,100278.84
2023-03-27T09:18:04.143Z,100311.13
2023-03-27T09:20:40.899Z,100310.25
2023-03-27T09:23:17.801Z,100310.19
2023-03-27T09:26:13.209Z,100317.84
2023-03-27T09:29:05.138Z,100337.91
2023-03-27T09:31:46.146Z,100335.25
2023-03-27T09:34:24.629Z,100328.28
2023-03-27T09:36:54.341Z,100341.38
2023-03-27T09:39:33.971Z,100359.88
2023-03-27T09:42:29.489Z,100347.72
2023-03-27T09:45:04.985Z,100309.38
2023-03-27T09:47:51.369Z,100342.56
2023-03-27T09:50:31.577Z,100346.06
2023-03-27T09:53:12.190Z,100344.25
2023-03-27T09:55:58.798Z,100297.00
2023-03-27T09:58:39.718Z,100306.50
2023-03-27T10:01:15.567Z,100336.09
2023-03-27T10:03:52.624Z,100342.88
2023-03-27T10:06:40.949Z,100360.34
2023-03-27T10:09:29.815Z,100341.00
2023-03-27T10:12:17.303Z,100354.06
2023-03-27T10:14:52.698Z,100340.72
2023-03-27T10:17:39.214Z,100352.09
2023-03-27T10:20:19.929Z,100319.75
2023-03-27T10:22:57.853Z,100359.19
2023-03-27T10:25:34.243Z,100363.72
2023-03-27T10:28:40.886Z,100369.94
2023-03-27T10:31:31.440Z,100355.94
2023-03-27T10:34:30.126Z,100374.84
2023-03-27T10:37:31.199Z,100380.03
2023-03-27T10:40:34.765Z,100391.22
2023-03-27T10:43:17.792Z,100345.16
2023-03-27T10:45:52.152Z,100394.25
2023-03-27T10:48:40.389Z,100399.69
2023-03-27T10:51:43.056Z,100393.63
2023-03-27T10:54:34.166Z,100359.56
2023-03-27T10:57:11.147Z,100398.81
2023-03-27T10:59:48.864Z,100396.06
2023-03-27T11:02:41.236Z,100398.00
2023-03-27T11:05:17.596Z,100386.69
2023-03-27T11:07:54.132Z,100371.13
2023-03-27T11:10:31.739Z,100395.59
2023-03-27T11:13:11.050Z,100395.66
2023-03-27T11:15:44.837Z,100392.97
2023-03-27T11:18:47.176Z,100399.72
2023-03-27T11:21:23.845Z,100398.50
2023-03-27T11:24:03.985Z,100401.03
2023-03-27T11:26:55.946Z,100394.31
2023-03-27T11:29:32.141Z,100402.38
2023-03-27T11:32:12.868Z,100405.13
2023-03-27T11:34:57.664Z,100410.41
2023-03-27T11:37:54.831Z,100401.63
2023-03-27T11:40:35.329Z,100401.25
2023-03-27T11:43:06.788Z,100406.06
2023-03-27T11:45:48.802Z,100417.28
2023-03-27T11:49:12.386Z,100419.13
2023-03-27T11:52:06.983Z,100420.47
2023-03-27T11:55:06.684Z,100445.13
2023-03-27T11:57:58.771Z,100451.28
2023-03-27T12:00:42.604Z,100440.34
2023-03-27T12:03:57.787Z,100456.59
2023-03-27T12:06:52.743Z,100430.63
2023-03-27T12:09:58.272Z,100451.69
2023-03-27T12:14:01.794Z,100457.94
2023-03-27T12:17:12.797Z,100384.69
2023-03-27T12:20:58.803Z,100455.47
2023-03-27T12:23:52.781Z,100464.38
2023-03-27T12:27:11.216Z,100465.34
2023-03-27T12:30:25.958Z,100445.16
2023-03-27T12:33:35.862Z,100455.47
2023-03-27T12:36:12.710Z,100465.03
2023-03-27T12:38:44.517Z,100470.31
2023-03-27T12:41:26.543Z,100445.81
2023-03-27T12:44:06.290Z,100467.78
2023-03-27T12:46:43.259Z,100463.47
2023-03-27T12:49:48.079Z,100458.22
2023-03-27T12:52:30.386Z,100453.84
2023-03-27T12:55:32.230Z,100456.41
2023-03-27T12:58:04.067Z,100451.09
2023-03-27T13:01:03.656Z,100416.09
2023-03-27T13:04:34.049Z,100453.59
2023-03-27T13:07:20.774Z,100483.34
2023-03-27T13:10:28.066Z,100465.97
2023-03-27T13:13:48.226Z,100475.28
2023-03-27T13:16:35.649Z,100459.84
2023-03-27T13:19:41.432Z,100460.06
2023-03-27T13:22:45.076Z,100478.31
2023-03-27T13:25:52.337Z,100479.44
2023-03-27T13:28:34.473Z,100397.78
2023-03-27T13:31:34.912Z,100462.75
2023-03-27T13:34:38.717Z,100470.72
2023-03-27T13:37:54.711Z,100478.63
2023-03-27T13:40:34.839Z,100478.88
2023-03-27T13:43:25.525Z,100477.38
2023-03-27T13:46:19.285Z,100481.72
2023-03-27T13:49:45.638Z,100482.72
2023-03-27T13:52:47.405Z,100479.38
2023-03-27T13:56:15.281Z,100450.44
2023-03-27T13:59:49.214Z,100512.50
2023-03-27T14:02:50.265Z,100489.66
2023-03-27T14:05:56.456Z,100506.19
2023-03-27T14:08:41.547Z,100468.50
2023-03-27T14:12:07.701Z,100506.13
2023-03-27T14:15:39.553Z,100370.84
2023-03-27T14:19:24.277Z,100496.34
2023-03-27T14:21:58.726Z,100430.69
2023-03-27T14:24:39.415Z,100497.84
2023-03-27T14:27:29.977Z,100500.47
2023-03-27T14:30:19.266Z,100496.25
2023-03-27T14:32:58.020Z,100496.47
2023-03-27T14:35:36.143Z,100494.13
2023-03-27T14:38:22.730Z,100489.06
2023-03-27T14:40:54.686Z,100488.28
2023-03-27T14:43:36.620Z,100486.63
2023-03-27T14:46:07.677Z,100461.34
2023-03-27T14:48:39.628Z,100498.91
2023-03-27T14:51:13.866Z,100498.06
2023-03-27T14:53:46.383Z,100494.56
2023-03-27T14:56:27.847Z,100464.88
2023-03-27T14:59:07.646Z,100479.75
2023-03-27T15:01:47.840Z,100505.09
2023-03-27T15:04:18.059Z,100498.09
2023-03-27T15:06:50.105Z,100494.59
2023-03-27T15:09:38.857Z,100497.16
2023-03-27T15:12:37.545Z,100474.50
2023-03-27T15:15:31.585Z,100474.47
2023-03-27T15:18:05.118Z,100505.94
2023-03-27T15:20:37.345Z,100507.66
2023-03-27T15:23:19.072Z,100516.44
2023-03-27T15:25:57.464Z,100514.56
2023-03-27T15:28:33.839Z,100512.75
2023-03-27T15:31:05.706Z,100517.03
2023-03-27T15:33:41.276Z,100519.53
2023-03-27T15:36:26.364Z,100509.94
2023-03-27T15:38:56.003Z,100538.31
2023-03-27T15:41:44.081Z,100478.72
2023-03-27T15:44:18.827Z,100520.50
2023-03-27T15:46:57.984Z,100525.66
2023-03-27T15:49:32.171Z,100522.97
2023-03-27T15:52:22.196Z,100513.28
2023-03-27T15:54:56.862Z,100517.66
2023-03-27T15:57:29.364Z,100528.97
2023-03-27T16:00:10.200Z,100527.16
2023-03-27T16:02:43.478Z,100516.66
2023-03-27T16:05:20.195Z,100527.19
2023-03-27T16:07:49.936Z,100524.53
2023-03-27T16:10:32.640Z,100485.16
2023-03-27T16:13:06.501Z,100468.59
2023-03-27T16:15:41.163Z,100537.75
2023-03-27T16:18:21.996Z,100538.56
2023-03-27T16:20:50.579Z,100530.66
2023-03-27T16:23:19.140Z,100547.28
2023-03-27T16:25:47.706Z,100550.94
2023-03-27T16:28:17.666Z,100565.03
2023-03-27T16:30:46.395Z,100561.50
2023-03-27T16:33:19.194Z,100515.16
2023-03-27T16:35:48.298Z,100571.25
2023-03-27T16:38:17.805Z,100568.63
2023-03-27T16:40:47.004Z,100566.03
2023-03-27T16:43:16.039Z,100573.94
2023-03-27T16:45:44.906Z,100570.44
2023-03-27T16:48:14.523Z,100532.78
2023-03-27T16:50:44.744Z,100582.66
2023-03-27T16:53:13.586Z,100583.44
2023-03-27T16:55:42.395Z,100585.16
2023-03-27T16:58:11.353Z,100587.75
2023-03-27T17:00:40.246Z,100586.88
2023-03-27T17:03:09.219Z,100596.47
2023-03-27T17:05:38.076Z,100592.94
2023-03-27T17:08:08.810Z,100599.91
2023-03-27T17:10:37.766Z,100605.13
2023-03-27T17:13:07.012Z,100605.13
2023-03-27T17:15:38.034Z,100605.13
2023-03-27T17:18:07.399Z,100621.78
2023-03-27T17:20:36.872Z,100622.69
2023-03-27T17:23:07.027Z,100625.38
2023-03-27T17:25:36.037Z,100632.34
2023-03-27T17:28:04.997Z,100638.53
2023-03-27T17:30:41.001Z,100643.81
2023-03-27T17:33:12.349Z,100663.00
2023-03-27T17:35:41.679Z,100676.78
2023-03-27T17:38:11.893Z,100675.72
2023-03-27T17:40:42.055Z,100684.25
2023-03-27T17:43:10.928Z,100680.56
2023-03-27T17:45:42.552Z,100637.53
2023-03-27T17:48:12.500Z,100674.28
2023-03-27T17:50:41.763Z,100681.94
2023-03-27T17:53:12.577Z,100673.88
2023-03-27T17:55:44.648Z,100666.47
2023-03-27T17:58:14.384Z,100659.31
2023-03-27T18:00:43.226Z,100664.22
2023-03-27T18:03:13.441Z,100661.47
2023-03-27T18:05:44.179Z,100642.19
2023-03-27T18:08:17.769Z,100583.13
2023-03-27T18:10:49.052Z,100660.34
2023-03-27T18:13:19.175Z,100666.34
2023-03-27T18:15:48.315Z,100667.97
2023-03-27T18:18:17.455Z,100664.44
2023-03-27T18:20:52.449Z,100672.25
2023-03-27T18:23:22.999Z,100678.31
2023-03-27T18:25:51.796Z,100679.97
2023-03-27T18:28:20.894Z,100682.63
2023-03-27T18:30:58.424Z,100682.53
2023-03-27T18:33:41.102Z,100688.50
2023-03-27T18:36:12.113Z,100581.44
2023-03-27T18:38:43.192Z,100635.72
2023-03-27T18:41:15.626Z,100561.34
2023-03-27T18:43:44.452Z,100701.13
2023-03-27T18:46:17.289Z,100699.44
2023-03-27T18:48:49.205Z,100703.69
2023-03-27T18:51:19.401Z,100714.00
2023-03-27T18:53:51.877Z,100705.31
2023-03-27T18:56:20.712Z,100708.75
2023-03-27T18:58:49.612Z,100707.00
2023-03-27T19:01:18.751Z,100713.84
2023-03-27T19:03:49.266Z,100709.50
2023-03-27T19:06:20.391Z,100706.03
2023-03-27T19:08:51.593Z,100704.41
2023-03-27T19:11:20.479Z,100704.41
2023-03-27T19:14:12.595Z,100707.03
2023-03-27T19:17:00.012Z,100703.56
2023-03-27T19:19:41.022Z,100692.03
2023-03-27T19:22:22.900Z,100704.88
2023-03-27T19:24:59.558Z,100696.81
2023-03-27T19:27:39.076Z,100697.56
2023-03-27T19:30:10.698Z,100635.97
2023-03-27T19:32:39.558Z,100688.69
2023-03-27T19:35:09.569Z,100686.03
2023-03-27T19:37:38.359Z,100690.34
2023-03-27T19:40:11.803Z,100688.53
2023-03-27T19:42:41.004Z,100688.38
2023-03-27T19:45:11.263Z,100692.75
2023-03-27T19:47:40.117Z,100693.56
2023-03-27T19:50:10.061Z,100658.47
2023-03-27T19:52:57.260Z,100691.69
2023-03-27T19:55:35.880Z,100698.47
2023-03-27T19:58:04.676Z,100695.72
2023-03-27T20:00:38.400Z,100693.94
2023-03-27T20:03:10.671Z,100692.22
2023-03-27T20:05:41.289Z,100687.09
2023-03-27T20:08:10.498Z,100687.28
2023-03-27T20:10:41.070Z,100687.25
2023-03-27T20:13:09.856Z,100692.31
2023-03-27T20:15:41.967Z,100619.47
2023-03-27T20:18:11.094Z,100653.69
2023-03-27T20:20:40.755Z,100691.34
2023-03-27T20:23:10.022Z,100686.09
2023-03-27T20:25:40.085Z,100682.50
2023-03-27T20:28:09.455Z,100658.56
2023-03-27T20:30:40.175Z,100679.53
2023-03-27T20:33:09.702Z,100686.78
2023-03-27T20:35:38.526Z,100681.47
2023-03-27T20:38:11.014Z,100677.13
2023-03-27T20:40:53.285Z,100572.53
2023-03-27T20:43:27.498Z,100673.66
2023-03-27T20:45:59.057Z,100681.44
2023-03-27T20:48:32.552Z,100677.06
2023-03-27T20:51:02.973Z,100674.25
2023-03-27T20:53:33.916Z,100665.72
2023-03-27T20:56:06.526Z,100673.53
2023-03-27T20:58:37.953Z,100667.47
2023-03-27T21:01:09.137Z,100613.16
2023-03-27T21:03:41.835Z,100580.88
2023-03-27T21:06:14.856Z,100610.75
2023-03-27T21:08:43.639Z,100677.28
2023-03-27T21:11:14.033Z,100509.50
2023-03-27T21:13:44.645Z,100665.84
2023-03-27T21:16:13.445Z,100664.91
2023-03-27T21:18:42.174Z,100667.59
2023-03-27T21:21:11.043Z,100660.97
2023-03-27T21:23:40.670Z,100668.25
2023-03-27T21:26:09.442Z,100666.63
2023-03-27T21:28:39.177Z,100671.16
2023-03-27T21:31:08.764Z,100668.53
2023-03-27T21:33:37.962Z,100669.25
2023-03-27T21:36:07.843Z,100641.94
2023-03-27T21:38:36.590Z,100659.50
2023-03-27T21:41:06.232Z,100663.22
2023-03-27T21:43:35.288Z,100659.84
2023-03-27T21:46:05.930Z,100656.56
2023-03-27T21:48:34.729Z,100655.59
2023-03-27T21:51:04.655Z,100657.44
2023-03-27T21:53:33.704Z,100655.84
2023-03-27T21:56:03.096Z,100665.69
2023-03-27T21:58:31.918Z,100658.09
2023-03-27T22:01:01.243Z,100665.09
2023-03-27T22:03:31.829Z,100665.09
2023-03-27T22:06:11.652Z,100659.06
2023-03-27T22:08:43.226Z,100670.50
2023-03-27T22:11:13.619Z,100622.44
2023-03-27T22:13:43.424Z,100654.25
2023-03-27T22:16:15.128Z,100482.50
2023-03-27T22:18:46.150Z,100656.41
2023-03-27T22:21:16.806Z,100661.88
2023-03-27T22:23:46.050Z,100650.44
2023-03-27T22:26:14.936Z,100659.09
2023-03-27T22:28:43.677Z,100648.69
2023-03-27T22:31:12.698Z,100649.72
2023-03-27T22:33:41.676Z,100654.94
2023-03-27T22:36:13.328Z,100639.31
2023-03-27T22:38:42.808Z,100634.88
2023-03-27T22:41:13.617Z,100599.78
2023-03-27T22:43:42.873Z,100646.91
2023-03-27T22:46:14.703Z,100636.41
2023-03-27T22:48:43.799Z,100640.59
2023-03-27T22:51:15.079Z,100597.50
2023-03-27T22:53:43.886Z,100636.34
2023-03-27T22:56:12.632Z,100644.25
2023-03-27T22:58:41.511Z,100647.88
2023-03-27T23:01:10.224Z,100645.34
2023-03-27T23:03:39.507Z,100640.19
2023-03-27T23:06:09.300Z,100634.00
2023-03-27T23:08:39.090Z,100627.00
2023-03-27T23:11:08.292Z,100647.06
2023-03-27T23:13:37.459Z,100649.75
2023-03-27T23:16:06.852Z,100662.03
2023-03-27T23:18:35.674Z,100658.69
2023-03-27T23:21:07.384Z,100528.94
2023-03-27T23:23:40.333Z,100657.78
2023-03-27T23:26:10.696Z,100663.88
2023-03-27T23:28:43.284Z,100663.88
2023-03-27T23:31:15.645Z,100655.19
2023-03-27T23:33:47.584Z,100665.69
2023-03-27T23:36:19.018Z,100665.78
2023-03-27T23:38:49.209Z,100668.66
2023-03-27T23:41:18.519Z,100674.66
2023-03-27T23:43:47.596Z,100674.53
2023-03-27T23:46:16.562Z,100673.75
2023-03-27T23:48:45.880Z,100671.25
2023-03-27T23:51:16.926Z,100654.63
2023-03-27T23:53:46.088Z,100656.41
2023-03-27T23:56:15.897Z,100623.84
2023-03-27T23:58:44.857Z,100667.72
